createdAt,value
2018-11-21T00:01:22.208Z,2.20
2018-11-21T00:03:50.516Z,2.00
2018-11-21T00:06:18.828Z,2.00
2018-11-21T00:08:47.136Z,2.00
2018-11-21T00:11:15.440Z,2.00
2018-11-21T00:13:43.753Z,2.00
2018-11-21T00:16:12.084Z,2.10
2018-11-21T00:18:40.367Z,2.00
2018-11-21T00:21:08.726Z,2.20
2018-11-21T00:23:37.020Z,2.10
2018-11-21T00:26:05.712Z,2.30
2018-11-21T00:28:34.005Z,2.40
2018-11-21T00:31:02.330Z,2.30
2018-11-21T00:33:30.630Z,2.20
2018-11-21T00:35:58.957Z,2.20
2018-11-21T00:38:27.237Z,2.30
2018-11-21T00:40:55.545Z,2.30
2018-11-21T00:43:23.852Z,2.30
2018-11-21T00:45:52.160Z,2.30
2018-11-21T00:48:20.457Z,2.10
2018-11-21T00:50:48.759Z,2.00
2018-11-21T00:53:17.046Z,2.10
2018-11-21T00:55:45.345Z,2.00
2018-11-21T00:58:13.628Z,1.90
2018-11-21T01:00:41.938Z,2.00
2018-11-21T01:03:10.258Z,1.90
2018-11-21T01:05:38.555Z,1.90
2018-11-21T01:08:06.858Z,1.90
2018-11-21T01:10:35.136Z,2.00
2018-11-21T01:13:03.565Z,1.90
2018-11-21T01:15:31.850Z,2.00
2018-11-21T01:18:00.183Z,2.00
2018-11-21T01:20:28.480Z,2.00
2018-11-21T01:22:56.792Z,1.90
2018-11-21T01:25:25.104Z,1.90
2018-11-21T01:27:53.408Z,1.90
2018-11-21T01:30:21.706Z,2.00
2018-11-21T01:32:50.025Z,2.00
2018-11-21T01:35:18.326Z,2.00
2018-11-21T01:37:46.647Z,2.40
2018-11-21T01:40:14.949Z,2.40
2018-11-21T01:42:43.264Z,2.30
2018-11-21T01:45:11.569Z,2.30
2018-11-21T01:47:39.892Z,2.30
2018-11-21T01:50:08.837Z,2.30
2018-11-21T01:52:37.268Z,2.40
2018-11-21T01:55:05.783Z,2.30
2018-11-21T01:57:34.105Z,2.50
2018-11-21T02:00:02.407Z,2.40
2018-11-21T02:02:30.746Z,2.40
2018-11-21T02:04:59.130Z,2.40
2018-11-21T02:07:27.433Z,2.30
2018-11-21T02:09:55.756Z,2.20
2018-11-21T02:12:24.082Z,2.20
2018-11-21T02:14:52.389Z,2.20
2018-11-21T02:17:20.692Z,2.10
2018-11-21T02:19:48.970Z,2.00
2018-11-21T02:22:17.300Z,2.10
2018-11-21T02:24:45.607Z,2.00
2018-11-21T02:27:13.925Z,2.00
2018-11-21T02:29:42.259Z,2.00
2018-11-21T02:32:10.576Z,2.10
2018-11-21T02:34:38.890Z,2.30
2018-11-21T02:37:07.214Z,2.50
2018-11-21T02:39:35.504Z,2.50
2018-11-21T02:42:03.814Z,2.50
2018-11-21T02:44:32.114Z,2.40
2018-11-21T02:47:00.441Z,2.50
2018-11-21T02:49:28.751Z,2.40
2018-11-21T02:51:57.095Z,2.40
2018-11-21T02:54:25.385Z,2.30
2018-11-21T02:57:31.253Z,2.40
2018-11-21T03:00:05.645Z,2.10
2018-11-21T03:02:34.008Z,2.00
2018-11-21T03:05:02.271Z,2.10
2018-11-21T03:07:30.579Z,2.10
2018-11-21T03:09:58.860Z,2.20
2018-11-21T03:12:28.791Z,2.10
2018-11-21T03:14:57.094Z,2.00
2018-11-21T03:17:25.482Z,2.00
2018-11-21T03:19:53.878Z,2.00
2018-11-21T03:22:22.216Z,2.00
2018-11-21T03:24:50.543Z,2.10
2018-11-21T03:27:18.873Z,2.10
2018-11-21T03:29:47.175Z,2.00
2018-11-21T03:32:15.489Z,1.90
2018-11-21T03:34:43.796Z,1.90
2018-11-21T03:37:12.131Z,2.10
2018-11-21T03:39:40.444Z,2.00
2018-11-21T03:42:08.766Z,2.00
2018-11-21T03:44:37.052Z,2.10
2018-11-21T03:47:05.390Z,2.10
2018-11-21T03:49:33.694Z,2.00
2018-11-21T03:52:01.991Z,1.90
2018-11-21T03:54:30.304Z,1.90
2018-11-21T03:56:58.601Z,1.90
2018-11-21T03:59:26.912Z,1.90
2018-11-21T04:01:55.216Z,1.90
2018-11-21T04:04:23.528Z,1.90
2018-11-21T04:06:51.829Z,1.90
2018-11-21T04:09:20.152Z,1.90
2018-11-21T04:11:48.427Z,1.90
2018-11-21T04:14:16.725Z,1.90
2018-11-21T04:16:45.033Z,1.90
2018-11-21T04:19:13.353Z,1.90
2018-11-21T04:21:41.650Z,1.90
2018-11-21T04:24:09.959Z,1.90
2018-11-21T04:26:38.244Z,1.90
2018-11-21T04:29:06.560Z,1.80
2018-11-21T04:31:34.853Z,1.90
2018-11-21T04:34:03.175Z,1.90
2018-11-21T04:36:31.473Z,1.90
2018-11-21T04:38:59.785Z,1.90
2018-11-21T04:41:28.114Z,2.00
2018-11-21T04:43:56.509Z,2.00
2018-11-21T04:46:24.793Z,1.90
2018-11-21T04:48:53.104Z,2.10
2018-11-21T04:51:21.397Z,2.10
2018-11-21T04:53:49.736Z,2.10
2018-11-21T04:56:18.002Z,2.00
2018-11-21T04:58:46.311Z,2.20
2018-11-21T05:01:14.612Z,2.10
2018-11-21T05:03:42.960Z,2.00
2018-11-21T05:06:11.244Z,2.00
2018-11-21T05:08:39.564Z,2.00
2018-11-21T05:11:07.871Z,1.90
2018-11-21T05:13:36.188Z,1.90
2018-11-21T05:16:05.225Z,1.90
2018-11-21T05:18:33.541Z,1.80
2018-11-21T05:21:01.890Z,1.80
2018-11-21T05:23:30.209Z,1.70
2018-11-21T05:25:58.501Z,1.80
2018-11-21T05:28:26.816Z,1.90
2018-11-21T05:30:55.128Z,1.80
2018-11-21T05:33:24.931Z,1.70
2018-11-21T05:35:53.236Z,1.70
2018-11-21T05:38:21.561Z,1.70
2018-11-21T05:40:49.877Z,1.70
2018-11-21T05:43:18.190Z,1.90
2018-11-21T05:45:46.510Z,1.80
2018-11-21T05:48:14.772Z,2.00
2018-11-21T05:50:43.085Z,1.90
2018-11-21T05:53:11.383Z,2.10
2018-11-21T05:55:39.675Z,1.90
2018-11-21T05:58:07.998Z,1.80
2018-11-21T06:00:36.293Z,1.90
2018-11-21T06:03:04.598Z,1.90
2018-11-21T06:05:32.907Z,1.90
2018-11-21T06:08:01.219Z,2.00
2018-11-21T06:10:29.538Z,1.90
2018-11-21T06:12:57.821Z,1.90
2018-11-21T06:15:26.164Z,1.90
2018-11-21T06:17:54.422Z,1.90
2018-11-21T06:20:22.734Z,1.90
2018-11-21T06:22:51.048Z,1.90
2018-11-21T06:25:19.352Z,1.80
2018-11-21T06:27:47.636Z,1.90
2018-11-21T06:30:16.033Z,1.90
2018-11-21T06:32:44.340Z,1.90
2018-11-21T06:35:12.966Z,1.90
2018-11-21T06:37:41.279Z,1.80
2018-11-21T06:40:11.887Z,1.70
2018-11-21T06:42:40.247Z,1.80
2018-11-21T06:45:09.584Z,1.70
2018-11-21T06:47:37.877Z,1.80
2018-11-21T06:50:06.844Z,1.90
2018-11-21T06:52:35.133Z,1.90
2018-11-21T06:55:03.434Z,2.00
2018-11-21T06:57:31.714Z,2.10
2018-11-21T07:00:00.042Z,2.10
2018-11-21T07:02:28.350Z,2.00
2018-11-21T07:04:56.663Z,1.80
2018-11-21T07:07:24.963Z,1.90
2018-11-21T07:09:53.300Z,2.10
2018-11-21T07:12:21.610Z,2.20
2018-11-21T07:14:49.917Z,2.20
2018-11-21T07:17:18.196Z,2.00
2018-11-21T07:19:46.508Z,2.00
2018-11-21T07:22:14.801Z,2.00
2018-11-21T07:24:43.143Z,2.10
2018-11-21T07:27:11.420Z,2.10
2018-11-21T07:29:39.734Z,2.00
2018-11-21T07:32:08.024Z,2.20
2018-11-21T07:34:36.365Z,2.30
2018-11-21T07:37:04.671Z,2.20
2018-11-21T07:39:32.978Z,2.30
2018-11-21T07:42:01.283Z,2.20
2018-11-21T07:44:29.648Z,2.30
2018-11-21T07:46:57.937Z,2.40
2018-11-21T07:49:26.227Z,2.40
2018-11-21T07:51:54.533Z,2.40
2018-11-21T07:54:22.811Z,2.50
2018-11-21T07:57:27.009Z,2.50
2018-11-21T08:00:55.401Z,2.50
2018-11-21T08:03:24.751Z,2.50
2018-11-21T08:06:01.724Z,2.70
2018-11-21T08:09:04.189Z,2.70
2018-11-21T08:12:06.427Z,2.70
2018-11-21T08:14:53.927Z,2.70
2018-11-21T08:17:50.106Z,2.70
2018-11-21T08:20:36.191Z,2.70
2018-11-21T08:23:22.839Z,2.60
2018-11-21T08:26:10.441Z,2.70
2018-11-21T08:28:38.741Z,2.70
2018-11-21T08:31:07.060Z,2.80
2018-11-21T08:33:35.353Z,2.70
2018-11-21T08:36:03.706Z,2.70
2018-11-21T08:38:31.981Z,2.80
2018-11-21T08:41:00.365Z,2.70
2018-11-21T08:43:28.668Z,2.80
2018-11-21T08:45:56.998Z,2.80
2018-11-21T08:48:25.541Z,2.90
2018-11-21T08:50:53.882Z,2.80
2018-11-21T08:53:22.197Z,2.80
2018-11-21T08:55:50.758Z,2.80
2018-11-21T08:58:19.280Z,2.90
2018-11-21T09:00:48.319Z,2.90
2018-11-21T09:03:16.649Z,2.90
2018-11-21T09:05:44.974Z,3.00
2018-11-21T09:08:13.266Z,3.10
2018-11-21T09:10:41.595Z,3.10
2018-11-21T09:13:09.876Z,3.00
2018-11-21T09:15:38.189Z,3.00
2018-11-21T09:18:06.502Z,3.40
2018-11-21T09:20:34.906Z,3.50
2018-11-21T09:23:03.257Z,3.50
2018-11-21T09:25:31.543Z,3.60
2018-11-21T09:27:59.878Z,3.50
2018-11-21T09:30:28.188Z,3.50
2018-11-21T09:32:57.315Z,3.60
2018-11-21T09:35:25.626Z,3.60
2018-11-21T09:37:54.016Z,3.60
2018-11-21T09:40:23.230Z,3.70
2018-11-21T09:42:53.022Z,3.60
2018-11-21T09:45:22.191Z,3.70
2018-11-21T09:47:50.482Z,3.70
2018-11-21T09:50:20.952Z,3.60
2018-11-21T09:52:50.422Z,3.50
2018-11-21T09:55:17.787Z,3.50
2018-11-21T09:57:46.594Z,3.50
2018-11-21T10:00:52.863Z,3.30
2018-11-21T10:03:27.510Z,3.10
2018-11-21T10:06:04.052Z,3.10
2018-11-21T10:08:39.323Z,3.00
2018-11-21T10:11:08.598Z,3.00
2018-11-21T10:13:36.893Z,2.90
2018-11-21T10:16:06.175Z,3.10
2018-11-21T10:18:35.602Z,3.10
2018-11-21T10:21:04.195Z,3.10
2018-11-21T10:23:33.341Z,3.10
2018-11-21T10:26:01.781Z,3.20
2018-11-21T10:28:30.851Z,3.30
2018-11-21T10:30:59.166Z,3.40
2018-11-21T10:33:27.483Z,3.40
2018-11-21T10:35:55.763Z,3.40
2018-11-21T10:38:24.096Z,3.70
2018-11-21T10:40:52.385Z,3.70
2018-11-21T10:43:20.708Z,3.80
2018-11-21T10:45:49.008Z,3.60
2018-11-21T10:48:17.308Z,3.50
2018-11-21T10:50:45.595Z,3.60
2018-11-21T10:53:13.949Z,3.50
2018-11-21T10:55:42.240Z,3.50
2018-11-21T10:58:10.563Z,3.60
2018-11-21T11:00:56.542Z,3.70
2018-11-21T11:03:29.628Z,3.80
2018-11-21T11:06:32.111Z,3.80
2018-11-21T11:09:32.273Z,3.90
2018-11-21T11:12:18.595Z,3.70
2018-11-21T11:15:08.874Z,3.50
2018-11-21T11:17:57.485Z,3.40
2018-11-21T11:20:40.428Z,3.40
2018-11-21T11:23:27.971Z,3.40
2018-11-21T11:26:30.360Z,3.50
2018-11-21T11:29:16.130Z,3.50
2018-11-21T11:32:15.555Z,3.40
2018-11-21T11:35:18.493Z,3.30
2018-11-21T11:38:06.117Z,3.30
2018-11-21T11:40:57.703Z,3.30
2018-11-21T11:43:52.121Z,3.20
2018-11-21T11:46:42.404Z,3.10
2018-11-21T11:49:28.556Z,3.10
2018-11-21T11:52:16.078Z,3.10
2018-11-21T11:55:06.728Z,3.10
2018-11-21T11:58:06.217Z,3.10
2018-11-21T12:01:05.371Z,3.20
2018-11-21T12:03:57.817Z,3.30
2018-11-21T12:06:41.233Z,3.40
2018-11-21T12:09:22.500Z,3.50
2018-11-21T12:12:18.941Z,3.60
2018-11-21T12:15:21.317Z,3.70
2018-11-21T12:18:07.475Z,3.90
2018-11-21T12:20:57.767Z,3.70
2018-11-21T12:23:44.781Z,3.60
2018-11-21T12:26:24.767Z,3.40
2018-11-21T12:29:30.615Z,3.30
2018-11-21T12:32:21.065Z,3.20
2018-11-21T12:35:07.103Z,3.10
2018-11-21T12:37:53.137Z,3.10
2018-11-21T12:40:46.143Z,3.10
2018-11-21T12:43:20.652Z,3.20
2018-11-21T12:46:06.773Z,3.20
2018-11-21T12:48:57.337Z,3.30
2018-11-21T12:51:43.092Z,3.40
2018-11-21T12:54:29.632Z,3.30
2018-11-21T12:57:14.350Z,3.10
2018-11-21T13:00:04.807Z,3.10
2018-11-21T13:02:57.803Z,3.00
2018-11-21T13:05:43.724Z,3.00
2018-11-21T13:08:33.986Z,3.10
2018-11-21T13:11:19.852Z,3.30
2018-11-21T13:14:05.895Z,3.20
2018-11-21T13:16:59.165Z,3.00
2018-11-21T13:20:04.508Z,2.80
2018-11-21T13:22:50.583Z,2.60
2018-11-21T13:25:36.898Z,2.50
2018-11-21T13:28:22.885Z,2.50
2018-11-21T13:31:10.436Z,2.60
2018-11-21T13:34:12.966Z,2.70
2018-11-21T13:37:12.472Z,2.80
2018-11-21T13:40:08.823Z,2.80
2018-11-21T13:43:02.085Z,2.70
2018-11-21T13:45:53.396Z,2.50
2018-11-21T13:48:43.896Z,2.50
2018-11-21T13:51:29.946Z,2.50
2018-11-21T13:54:26.424Z,2.70
2018-11-21T13:56:54.735Z,2.80
2018-11-21T13:59:23.047Z,2.90
2018-11-21T14:01:51.325Z,2.90
2018-11-21T14:04:19.653Z,2.80
2018-11-21T14:06:47.980Z,2.90
2018-11-21T14:09:19.625Z,2.80
2018-11-21T14:11:48.516Z,2.80
2018-11-21T14:14:16.853Z,2.80
2018-11-21T14:16:45.127Z,2.60
2018-11-21T14:19:13.497Z,2.60
2018-11-21T14:21:41.803Z,2.60
2018-11-21T14:24:10.131Z,2.60
2018-11-21T14:26:38.543Z,2.60
2018-11-21T14:29:06.871Z,2.90
2018-11-21T14:31:35.192Z,2.70
2018-11-21T14:34:03.515Z,2.70
2018-11-21T14:36:31.877Z,2.60
2018-11-21T14:39:00.304Z,2.70
2018-11-21T14:41:28.610Z,2.70
2018-11-21T14:43:56.985Z,2.70
2018-11-21T14:46:25.294Z,2.80
2018-11-21T14:48:53.614Z,2.70
2018-11-21T14:51:21.891Z,2.80
2018-11-21T14:53:50.215Z,2.70
2018-11-21T14:56:18.513Z,2.70
2018-11-21T14:58:46.836Z,2.60
2018-11-21T15:01:15.115Z,2.70
2018-11-21T15:03:43.418Z,2.60
2018-11-21T15:06:11.716Z,2.50
2018-11-21T15:08:40.063Z,2.50
2018-11-21T15:11:08.385Z,2.40
2018-11-21T15:13:36.728Z,2.40
2018-11-21T15:16:05.021Z,2.30
2018-11-21T15:18:33.328Z,2.20
2018-11-21T15:21:01.637Z,2.30
2018-11-21T15:23:29.941Z,2.30
2018-11-21T15:25:58.227Z,2.40
2018-11-21T15:28:26.518Z,2.30
2018-11-21T15:30:54.836Z,2.30
2018-11-21T15:33:23.112Z,2.40
2018-11-21T15:35:51.441Z,2.40
2018-11-21T15:38:19.744Z,2.50
2018-11-21T15:40:48.056Z,2.50
2018-11-21T15:43:16.414Z,2.40
2018-11-21T15:45:44.720Z,2.30
2018-11-21T15:48:13.112Z,2.30
2018-11-21T15:50:41.485Z,2.30
2018-11-21T15:53:09.774Z,2.40
2018-11-21T15:55:38.081Z,2.40
2018-11-21T15:58:06.500Z,2.40
2018-11-21T16:00:35.660Z,2.40
2018-11-21T16:03:05.600Z,2.30
2018-11-21T16:05:33.952Z,2.30
2018-11-21T16:08:03.499Z,2.20
2018-11-21T16:10:37.715Z,2.20
2018-11-21T16:13:07.030Z,2.20
2018-11-21T16:15:40.828Z,2.20
2018-11-21T16:18:09.113Z,2.30
2018-11-21T16:20:37.522Z,2.20
2018-11-21T16:23:05.822Z,2.20
2018-11-21T16:25:34.123Z,2.20
2018-11-21T16:28:02.472Z,2.20
2018-11-21T16:30:30.849Z,2.20
2018-11-21T16:32:59.149Z,2.10
2018-11-21T16:35:27.463Z,2.00
2018-11-21T16:37:55.748Z,2.00
2018-11-21T16:40:25.630Z,2.10
2018-11-21T16:42:55.008Z,2.10
2018-11-21T16:45:25.403Z,2.10
2018-11-21T16:47:53.704Z,2.10
2018-11-21T16:50:22.207Z,2.10
2018-11-21T16:52:50.514Z,2.10
2018-11-21T16:55:20.533Z,2.10
2018-11-21T16:57:49.220Z,2.00
2018-11-21T17:00:19.194Z,2.00
2018-11-21T17:02:47.528Z,1.90
2018-11-21T17:05:17.082Z,1.90
2018-11-21T17:07:45.463Z,2.00
2018-11-21T17:10:18.090Z,2.00
2018-11-21T17:12:46.972Z,1.90
2018-11-21T17:15:16.743Z,2.00
2018-11-21T17:17:45.038Z,2.10
2018-11-21T17:20:18.976Z,2.10
2018-11-21T17:22:48.453Z,2.10
2018-11-21T17:25:18.284Z,2.00
2018-11-21T17:27:46.913Z,2.00
2018-11-21T17:30:16.526Z,2.00
2018-11-21T17:32:44.899Z,2.00
2018-11-21T17:35:14.304Z,2.10
2018-11-21T17:37:42.791Z,2.10
2018-11-21T17:40:13.624Z,2.20
2018-11-21T17:42:41.952Z,2.20
2018-11-21T17:45:11.137Z,2.20
2018-11-21T17:47:39.493Z,2.10
2018-11-21T17:50:13.075Z,2.10
2018-11-21T17:52:41.519Z,2.10
2018-11-21T17:55:12.008Z,2.10
2018-11-21T17:57:40.560Z,2.10
2018-11-21T18:00:13.529Z,2.20
2018-11-21T18:02:42.703Z,2.40
2018-11-21T18:05:12.249Z,2.40
2018-11-21T18:07:40.554Z,2.40
2018-11-21T18:10:17.351Z,2.40
2018-11-21T18:12:46.057Z,2.30
2018-11-21T18:15:15.024Z,2.40
2018-11-21T18:17:44.385Z,2.40
2018-11-21T18:20:13.328Z,2.50
2018-11-21T18:22:42.391Z,2.50
2018-11-21T18:25:12.719Z,2.40
2018-11-21T18:27:41.022Z,2.20
2018-11-21T18:30:11.140Z,2.20
2018-11-21T18:32:39.547Z,2.10
2018-11-21T18:35:09.403Z,2.10
2018-11-21T18:37:37.719Z,2.10
2018-11-21T18:40:09.088Z,2.00
2018-11-21T18:42:37.557Z,2.00
2018-11-21T18:45:11.972Z,2.00
2018-11-21T18:47:40.504Z,2.00
2018-11-21T18:50:11.190Z,2.10
2018-11-21T18:52:38.347Z,2.00
2018-11-21T18:55:09.498Z,2.10
2018-11-21T18:58:04.056Z,2.10
2018-11-21T19:00:34.332Z,2.10
2018-11-21T19:03:02.650Z,2.00
2018-11-21T19:05:31.124Z,2.00
2018-11-21T19:07:59.543Z,2.10
2018-11-21T19:10:27.896Z,2.00
